createdAt,value
2022-10-02T00:02:02.811Z,78.62
2022-10-02T00:04:36.976Z,78.58
2022-10-02T00:07:06.523Z,78.51
2022-10-02T00:09:35.595Z,78.67
2022-10-02T00:12:02.053Z,78.53
2022-10-02T00:14:32.172Z,78.55
2022-10-02T00:17:00.526Z,78.31
2022-10-02T00:19:27.524Z,78.56
2022-10-02T00:22:12.827Z,78.35
2022-10-02T00:24:43.784Z,78.56
2022-10-02T00:27:15.496Z,78.85
2022-10-02T00:29:52.798Z,78.69
2022-10-02T00:32:34.132Z,78.74
2022-10-02T00:35:03.242Z,78.56
2022-10-02T00:37:29.607Z,79.12
2022-10-02T00:40:03.146Z,79.16
2022-10-02T00:42:38.625Z,79.38
2022-10-02T00:45:40.739Z,79.35
2022-10-02T00:48:07.776Z,79.60
2022-10-02T00:50:50.111Z,79.81
2022-10-02T00:53:19.602Z,79.86
2022-10-02T00:55:56.232Z,79.82
2022-10-02T00:58:31.269Z,79.36
2022-10-02T01:01:09.339Z,79.40
2022-10-02T01:03:53.140Z,79.48
2022-10-02T01:06:24.215Z,79.01
2022-10-02T01:08:51.995Z,78.54
2022-10-02T01:11:19.483Z,78.21
2022-10-02T01:13:45.931Z,78.01
2022-10-02T01:16:14.027Z,77.60
2022-10-02T01:18:41.880Z,77.46
2022-10-02T01:21:12.593Z,77.33
2022-10-02T01:23:45.004Z,77.02
2022-10-02T01:26:11.514Z,76.93
2022-10-02T01:28:38.121Z,76.83
2022-10-02T01:31:14.472Z,76.36
2022-10-02T01:33:41.944Z,76.15
2022-10-02T01:36:09.643Z,75.98
2022-10-02T01:38:36.551Z,75.99
2022-10-02T01:41:02.944Z,76.20
2022-10-02T01:43:34.086Z,75.99
2022-10-02T01:46:19.028Z,76.16
2022-10-02T01:49:08.629Z,76.22
2022-10-02T01:51:40.914Z,76.57
2022-10-02T01:54:25.771Z,76.91
2022-10-02T01:56:57.507Z,76.98
2022-10-02T01:59:35.427Z,76.99
2022-10-02T02:02:17.637Z,77.03
2022-10-02T02:04:54.803Z,77.22
2022-10-02T02:07:28.149Z,77.14
2022-10-02T02:10:01.001Z,77.10
2022-10-02T02:12:27.367Z,76.87
2022-10-02T02:15:03.094Z,76.91
2022-10-02T02:17:39.730Z,77.01
2022-10-02T02:20:08.840Z,77.20
2022-10-02T02:22:41.094Z,77.18
2022-10-02T02:25:13.629Z,77.32
2022-10-02T02:27:42.717Z,77.30
2022-10-02T02:30:11.959Z,77.63
2022-10-02T02:32:45.183Z,77.81
2022-10-02T02:35:15.433Z,78.48
2022-10-02T02:37:42.535Z,78.68
2022-10-02T02:40:13.726Z,78.90
2022-10-02T02:42:42.232Z,79.15
2022-10-02T02:45:18.719Z,79.08
2022-10-02T02:47:52.689Z,79.30
2022-10-02T02:50:22.244Z,79.72
2022-10-02T02:52:52.193Z,79.45
2022-10-02T02:55:20.078Z,79.82
2022-10-02T02:57:56.632Z,79.97
2022-10-02T03:00:24.574Z,80.39
2022-10-02T03:02:54.410Z,80.28
2022-10-02T03:05:22.722Z,80.39
2022-10-02T03:07:52.384Z,80.71
2022-10-02T03:10:25.741Z,80.85
2022-10-02T03:13:00.520Z,80.57
2022-10-02T03:15:26.956Z,80.73
2022-10-02T03:18:03.126Z,80.85
2022-10-02T03:20:35.795Z,81.59
2022-10-02T03:23:17.059Z,81.04
2022-10-02T03:26:01.876Z,81.89
2022-10-02T03:28:55.497Z,81.32
2022-10-02T03:31:23.618Z,81.54
2022-10-02T03:33:50.836Z,81.70
2022-10-02T03:36:21.052Z,81.60
2022-10-02T03:39:00.758Z,82.07
2022-10-02T03:41:34.620Z,82.03
2022-10-02T03:44:01.163Z,82.08
2022-10-02T03:46:27.676Z,82.27
2022-10-02T03:48:56.366Z,82.12
2022-10-02T03:51:23.837Z,82.36
2022-10-02T03:53:50.328Z,82.13
2022-10-02T03:56:23.950Z,82.02
2022-10-02T03:58:52.532Z,82.14
2022-10-02T04:01:23.619Z,81.91
2022-10-02T04:03:50.126Z,82.05
2022-10-02T04:06:22.591Z,82.05
2022-10-02T04:09:02.826Z,82.13
2022-10-02T04:11:35.095Z,82.47
2022-10-02T04:14:06.135Z,82.27
2022-10-02T04:16:35.550Z,82.27
2022-10-02T04:19:07.270Z,82.22
2022-10-02T04:21:34.604Z,82.28
2022-10-02T04:24:21.600Z,82.22
2022-10-02T04:27:08.538Z,82.13
2022-10-02T04:29:50.188Z,82.50
2022-10-02T04:32:17.317Z,82.02
2022-10-02T04:34:44.028Z,82.27
2022-10-02T04:37:19.572Z,82.39
2022-10-02T04:39:58.626Z,82.00
2022-10-02T04:42:34.784Z,82.17
2022-10-02T04:45:19.957Z,82.32
2022-10-02T04:47:55.423Z,82.33
2022-10-02T04:50:40.761Z,82.40
2022-10-02T04:53:15.572Z,82.23
2022-10-02T04:55:57.492Z,82.43
2022-10-02T04:58:36.178Z,82.41
2022-10-02T05:01:15.452Z,82.42
2022-10-02T05:03:51.508Z,82.48
2022-10-02T05:06:36.627Z,82.62
2022-10-02T05:09:37.368Z,82.56
2022-10-02T05:12:12.683Z,82.54
2022-10-02T05:14:45.065Z,82.38
2022-10-02T05:17:23.547Z,82.22
2022-10-02T05:20:09.551Z,82.26
2022-10-02T05:22:41.853Z,82.20
2022-10-02T05:25:30.307Z,82.47
2022-10-02T05:28:02.820Z,82.39
2022-10-02T05:30:33.680Z,82.34
2022-10-02T05:33:18.819Z,82.67
2022-10-02T05:35:48.242Z,83.18
2022-10-02T05:38:20.762Z,82.58
2022-10-02T05:40:50.194Z,82.52
2022-10-02T05:43:34.442Z,82.13
2022-10-02T05:46:24.317Z,82.36
2022-10-02T05:49:02.704Z,82.44
2022-10-02T05:51:36.756Z,82.42
2022-10-02T05:54:06.984Z,81.92
2022-10-02T05:56:38.768Z,82.07
2022-10-02T05:59:28.689Z,82.06
2022-10-02T06:01:55.734Z,81.98
2022-10-02T06:04:22.352Z,82.37
2022-10-02T06:06:51.683Z,82.13
2022-10-02T06:09:24.159Z,82.00
2022-10-02T06:11:53.448Z,81.93
2022-10-02T06:14:23.538Z,82.01
2022-10-02T06:17:00.818Z,81.99
2022-10-02T06:19:30.902Z,82.04
2022-10-02T06:22:05.764Z,82.17
2022-10-02T06:24:39.682Z,82.10
2022-10-02T06:27:13.665Z,82.10
2022-10-02T06:29:43.589Z,82.16
2022-10-02T06:32:19.224Z,82.57
2022-10-02T06:34:47.985Z,82.49
2022-10-02T06:37:27.993Z,82.38
2022-10-02T06:40:01.202Z,82.47
2022-10-02T06:42:47.260Z,82.51
2022-10-02T06:45:32.665Z,82.49
2022-10-02T06:48:05.786Z,82.01
2022-10-02T06:50:50.715Z,81.90
2022-10-02T06:53:35.960Z,81.81
2022-10-02T06:56:15.198Z,81.40
2022-10-02T06:58:55.218Z,81.26
2022-10-02T07:01:41.037Z,81.04
2022-10-02T07:04:29.165Z,81.07
2022-10-02T07:07:21.766Z,81.21
2022-10-02T07:09:54.046Z,81.25
2022-10-02T07:12:39.347Z,81.03
2022-10-02T07:15:25.999Z,80.97
2022-10-02T07:17:59.448Z,81.37
2022-10-02T07:20:29.619Z,80.90
2022-10-02T07:23:02.115Z,80.21
2022-10-02T07:25:28.480Z,79.69
2022-10-02T07:28:01.054Z,80.60
2022-10-02T07:30:32.548Z,80.09
2022-10-02T07:33:19.449Z,79.55
2022-10-02T07:35:53.500Z,79.36
2022-10-02T07:38:45.593Z,78.90
2022-10-02T07:41:18.733Z,79.21
2022-10-02T07:44:12.768Z,78.81
2022-10-02T07:46:39.397Z,78.83
2022-10-02T07:49:24.715Z,78.73
2022-10-02T07:51:51.240Z,78.65
2022-10-02T07:54:29.900Z,78.44
2022-10-02T07:56:58.170Z,77.95
2022-10-02T07:59:24.711Z,77.85
2022-10-02T08:01:51.912Z,77.63
2022-10-02T08:04:24.385Z,77.43
2022-10-02T08:06:54.916Z,77.16
2022-10-02T08:09:31.666Z,76.99
2022-10-02T08:12:21.163Z,75.65
2022-10-02T08:14:48.547Z,75.93
2022-10-02T08:17:14.922Z,76.04
2022-10-02T08:19:43.608Z,75.62
2022-10-02T08:22:17.296Z,76.17
2022-10-02T08:24:47.370Z,75.53
2022-10-02T08:27:15.709Z,75.51
2022-10-02T08:29:44.472Z,75.37
2022-10-02T08:32:11.831Z,74.94
2022-10-02T08:34:38.233Z,73.95
2022-10-02T08:37:21.807Z,73.38
2022-10-02T08:39:56.120Z,72.09
2022-10-02T08:42:41.370Z,72.42
2022-10-02T08:45:20.574Z,70.85
2022-10-02T08:48:02.530Z,70.07
2022-10-02T08:50:32.110Z,69.59
2022-10-02T08:52:58.522Z,68.53
2022-10-02T08:55:42.178Z,68.32
2022-10-02T08:58:17.887Z,67.29
2022-10-02T09:00:47.383Z,68.60
2022-10-02T09:03:37.913Z,67.34
2022-10-02T09:06:26.274Z,66.53
2022-10-02T09:09:03.296Z,65.73
2022-10-02T09:11:48.242Z,65.61
2022-10-02T09:14:20.989Z,63.29
2022-10-02T09:17:06.047Z,63.48
2022-10-02T09:19:41.869Z,62.55
2022-10-02T09:22:14.153Z,64.16
2022-10-02T09:25:04.344Z,63.17
2022-10-02T09:27:30.749Z,63.45
2022-10-02T09:29:57.110Z,61.80
2022-10-02T09:32:52.677Z,62.91
2022-10-02T09:35:31.580Z,62.90
2022-10-02T09:38:11.030Z,61.61
2022-10-02T09:40:53.105Z,60.91
2022-10-02T09:43:33.406Z,61.33
2022-10-02T09:46:02.592Z,60.56
2022-10-02T09:48:45.038Z,59.35
2022-10-02T09:51:14.443Z,58.58
2022-10-02T09:54:02.423Z,58.08
2022-10-02T09:56:47.472Z,56.66
2022-10-02T09:59:18.335Z,55.31
2022-10-02T10:01:53.386Z,55.64
2022-10-02T10:05:04.673Z,54.61
2022-10-02T10:07:49.240Z,54.13
2022-10-02T10:10:21.719Z,54.36
2022-10-02T10:13:07.514Z,54.28
2022-10-02T10:15:46.187Z,54.63
2022-10-02T10:18:12.590Z,53.92
2022-10-02T10:20:54.362Z,54.72
2022-10-02T10:23:31.580Z,53.76
2022-10-02T10:25:58.009Z,53.34
2022-10-02T10:28:40.919Z,52.10
2022-10-02T10:31:27.991Z,53.29
2022-10-02T10:34:03.084Z,54.00
2022-10-02T10:37:07.015Z,53.43
2022-10-02T10:39:52.052Z,53.70
2022-10-02T10:42:24.612Z,53.14
2022-10-02T10:45:05.689Z,53.20
2022-10-02T10:47:35.199Z,53.47
2022-10-02T10:50:04.586Z,53.33
2022-10-02T10:52:44.197Z,53.76
2022-10-02T10:55:19.135Z,54.48
2022-10-02T10:57:51.943Z,54.63
2022-10-02T11:00:36.302Z,54.99
2022-10-02T11:03:03.394Z,55.87
2022-10-02T11:05:48.243Z,55.85
2022-10-02T11:08:33.530Z,55.64
2022-10-02T11:11:08.750Z,54.63
2022-10-02T11:13:44.013Z,53.67
2022-10-02T11:16:22.086Z,53.00
2022-10-02T11:19:03.501Z,52.33
2022-10-02T11:21:48.692Z,51.43
2022-10-02T11:24:24.639Z,50.89
2022-10-02T11:26:57.150Z,49.67
2022-10-02T11:29:36.971Z,51.74
2022-10-02T11:32:19.307Z,52.03
2022-10-02T11:34:56.534Z,54.45
2022-10-02T11:37:41.957Z,55.96
2022-10-02T11:40:23.417Z,56.15
2022-10-02T11:42:55.855Z,56.75
2022-10-02T11:45:31.548Z,55.75
2022-10-02T11:48:23.976Z,55.82
2022-10-02T11:51:28.720Z,56.37
2022-10-02T11:54:16.344Z,57.65
2022-10-02T11:57:02.779Z,56.69
2022-10-02T11:59:39.977Z,56.95
2022-10-02T12:02:10.836Z,56.34
2022-10-02T12:04:46.642Z,56.57
2022-10-02T12:07:13.109Z,55.75
2022-10-02T12:09:57.952Z,54.41
2022-10-02T12:12:27.699Z,53.17
2022-10-02T12:15:17.555Z,53.52
2022-10-02T12:18:21.623Z,51.73
2022-10-02T12:22:00.572Z,49.48
2022-10-02T12:25:38.582Z,49.64
2022-10-02T12:28:43.548Z,50.95
2022-10-02T12:31:43.654Z,51.75
2022-10-02T12:34:55.589Z,51.40
2022-10-02T12:37:52.607Z,48.83
2022-10-02T12:40:45.171Z,46.97
2022-10-02T12:43:55.632Z,46.31
2022-10-02T12:46:51.672Z,46.23
2022-10-02T12:49:45.839Z,45.46
2022-10-02T12:52:15.769Z,44.90
2022-10-02T12:55:11.619Z,44.62
2022-10-02T12:58:19.653Z,44.66
2022-10-02T13:01:36.851Z,45.17
2022-10-02T13:04:39.059Z,45.20
2022-10-02T13:07:19.757Z,45.71
2022-10-02T13:10:06.423Z,46.38
2022-10-02T13:13:02.694Z,46.30
2022-10-02T13:15:59.008Z,44.61
2022-10-02T13:19:00.488Z,45.04
2022-10-02T13:21:35.821Z,43.51
2022-10-02T13:24:04.289Z,44.55
2022-10-02T13:26:36.505Z,45.80
2022-10-02T13:29:41.730Z,47.00
2022-10-02T13:33:00.725Z,47.47
2022-10-02T13:36:07.344Z,44.89
2022-10-02T13:39:18.723Z,44.99
2022-10-02T13:42:23.766Z,44.42
2022-10-02T13:45:27.810Z,44.55
2022-10-02T13:48:24.198Z,44.90
2022-10-02T13:51:25.769Z,44.35
2022-10-02T13:54:48.795Z,45.32
2022-10-02T13:57:38.050Z,45.23
2022-10-02T14:00:54.814Z,44.12
2022-10-02T14:03:47.851Z,44.84
2022-10-02T14:06:49.787Z,45.18
2022-10-02T14:09:52.947Z,44.85
2022-10-02T14:13:05.810Z,43.69
2022-10-02T14:16:02.315Z,43.14
2022-10-02T14:18:54.844Z,43.86
2022-10-02T14:21:53.860Z,44.39
2022-10-02T14:25:07.846Z,44.80
2022-10-02T14:28:14.939Z,45.83
2022-10-02T14:31:28.897Z,45.92
2022-10-02T14:34:15.229Z,45.79
2022-10-02T14:37:30.878Z,46.65
2022-10-02T14:40:26.880Z,46.32
2022-10-02T14:43:33.547Z,46.82
2022-10-02T14:46:29.882Z,47.34
2022-10-02T14:49:41.833Z,47.78
2022-10-02T14:52:22.396Z,47.50
2022-10-02T14:55:13.921Z,47.98
2022-10-02T14:58:06.911Z,47.60
2022-10-02T15:01:17.007Z,48.42
2022-10-02T15:04:16.182Z,49.39
2022-10-02T15:07:02.942Z,50.45
2022-10-02T15:09:52.228Z,49.60
2022-10-02T15:12:58.439Z,51.17
2022-10-02T15:16:13.070Z,51.35
2022-10-02T15:19:10.961Z,50.74
2022-10-02T15:22:14.564Z,50.72
2022-10-02T15:25:17.568Z,51.35
2022-10-02T15:27:50.092Z,51.33
2022-10-02T15:30:23.754Z,53.62
2022-10-02T15:33:11.307Z,53.99
2022-10-02T15:36:05.009Z,53.06
2022-10-02T15:39:13.186Z,52.65
2022-10-02T15:41:50.024Z,53.11
2022-10-02T15:44:36.551Z,54.71
2022-10-02T15:47:35.902Z,54.48
2022-10-02T15:50:21.162Z,55.12
2022-10-02T15:52:49.329Z,53.66
2022-10-02T15:55:19.944Z,54.72
2022-10-02T15:58:15.043Z,54.16
2022-10-02T16:01:26.059Z,55.70
2022-10-02T16:04:38.101Z,55.84
2022-10-02T16:07:55.086Z,55.93
2022-10-02T16:10:50.485Z,57.10
2022-10-02T16:13:49.089Z,58.06
2022-10-02T16:16:41.967Z,57.60
2022-10-02T16:19:46.101Z,58.41
2022-10-02T16:22:45.143Z,57.98
2022-10-02T16:25:58.112Z,58.72
2022-10-02T16:28:54.156Z,58.21
2022-10-02T16:31:59.128Z,58.22
2022-10-02T16:35:06.098Z,59.25
2022-10-02T16:37:59.962Z,59.42
2022-10-02T16:40:26.808Z,60.16
2022-10-02T16:43:12.155Z,60.10
2022-10-02T16:46:13.857Z,60.68
2022-10-02T16:48:51.872Z,61.21
2022-10-02T16:51:57.175Z,61.11
2022-10-02T16:54:51.182Z,60.85
2022-10-02T16:57:52.185Z,61.14
2022-10-02T17:01:06.241Z,61.39
2022-10-02T17:04:20.212Z,61.27
2022-10-02T17:07:31.897Z,60.60
2022-10-02T17:10:24.231Z,61.11
2022-10-02T17:13:20.205Z,60.81
2022-10-02T17:16:24.185Z,60.77
2022-10-02T17:19:24.221Z,61.66
2022-10-02T17:22:15.009Z,62.64
2022-10-02T17:24:54.243Z,62.81
2022-10-02T17:27:45.561Z,63.28
2022-10-02T17:30:51.260Z,63.11
2022-10-02T17:33:45.656Z,63.26
2022-10-02T17:36:19.697Z,63.90
2022-10-02T17:38:56.325Z,62.81
2022-10-02T17:42:12.342Z,62.50
2022-10-02T17:45:24.304Z,63.40
2022-10-02T17:48:28.284Z,62.46
2022-10-02T17:51:47.155Z,62.60
2022-10-02T17:55:06.321Z,63.80
2022-10-02T17:58:05.318Z,64.09
2022-10-02T18:01:10.564Z,63.45
2022-10-02T18:04:15.324Z,64.39
2022-10-02T18:07:23.271Z,63.41
2022-10-02T18:10:10.342Z,63.73
2022-10-02T18:12:56.567Z,65.24
2022-10-02T18:15:34.647Z,64.02
2022-10-02T18:18:27.349Z,65.02
2022-10-02T18:21:39.346Z,63.90
2022-10-02T18:24:32.369Z,66.17
2022-10-02T18:27:37.393Z,64.50
2022-10-02T18:30:20.390Z,64.89
2022-10-02T18:33:06.638Z,64.26
2022-10-02T18:36:11.485Z,65.20
2022-10-02T18:39:00.166Z,65.58
2022-10-02T18:41:56.415Z,65.16
2022-10-02T18:44:44.798Z,65.29
2022-10-02T18:47:51.445Z,65.07
2022-10-02T18:50:39.485Z,65.79
2022-10-02T18:53:35.444Z,66.60
2022-10-02T18:56:40.557Z,66.31
2022-10-02T18:59:33.447Z,65.38
2022-10-02T19:02:34.543Z,65.20
2022-10-02T19:05:32.871Z,66.13
2022-10-02T19:08:56.478Z,66.39
2022-10-02T19:11:45.256Z,66.42
2022-10-02T19:14:16.212Z,66.38
2022-10-02T19:17:21.527Z,66.85
2022-10-02T19:20:42.572Z,67.24
2022-10-02T19:23:37.942Z,66.74
2022-10-02T19:26:32.566Z,67.62
2022-10-02T19:29:36.590Z,67.38
2022-10-02T19:32:35.509Z,66.75
2022-10-02T19:35:33.690Z,67.38
2022-10-02T19:38:19.538Z,67.45
2022-10-02T19:41:18.557Z,67.80
2022-10-02T19:44:07.612Z,67.18
2022-10-02T19:47:02.569Z,67.68
2022-10-02T19:49:57.545Z,68.02
2022-10-02T19:52:57.578Z,68.77
2022-10-02T19:55:44.778Z,67.86
2022-10-02T19:59:04.570Z,68.96
2022-10-02T20:01:58.593Z,68.07
2022-10-02T20:04:51.658Z,68.03
2022-10-02T20:07:39.580Z,68.65
2022-10-02T20:10:17.082Z,68.13
2022-10-02T20:13:18.609Z,69.21
2022-10-02T20:16:46.661Z,69.29
2022-10-02T20:19:45.642Z,69.22
2022-10-02T20:22:44.629Z,68.84
2022-10-02T20:25:35.644Z,69.40
2022-10-02T20:28:38.633Z,69.54
2022-10-02T20:31:43.385Z,68.63
2022-10-02T20:34:48.657Z,70.13
2022-10-02T20:37:35.415Z,69.50
2022-10-02T20:40:31.654Z,69.42
2022-10-02T20:43:30.665Z,69.69
2022-10-02T20:46:42.676Z,70.90
2022-10-02T20:49:41.393Z,70.25
2022-10-02T20:52:52.461Z,70.59
2022-10-02T20:56:05.698Z,70.06
2022-10-02T20:58:58.722Z,70.49
2022-10-02T21:01:44.956Z,70.72
2022-10-02T21:04:40.309Z,71.04
2022-10-02T21:07:49.929Z,70.50
2022-10-02T21:11:05.755Z,70.31
2022-10-02T21:14:17.743Z,70.98
2022-10-02T21:17:23.121Z,71.04
2022-10-02T21:20:49.706Z,70.76
2022-10-02T21:23:46.661Z,71.96
2022-10-02T21:26:54.798Z,70.20
2022-10-02T21:30:10.511Z,70.60
2022-10-02T21:33:07.783Z,71.22
2022-10-02T21:35:35.909Z,71.51
2022-10-02T21:38:45.983Z,71.02
2022-10-02T21:41:43.780Z,70.96
2022-10-02T21:45:08.814Z,71.20
2022-10-02T21:48:04.812Z,71.77
2022-10-02T21:50:54.232Z,71.24
2022-10-02T21:53:52.830Z,71.62
2022-10-02T21:56:52.488Z,71.33
2022-10-02T21:59:58.337Z,71.69
2022-10-02T22:02:53.830Z,71.63
2022-10-02T22:05:55.897Z,71.59
2022-10-02T22:09:14.836Z,72.54
2022-10-02T22:12:26.856Z,72.68
2022-10-02T22:15:13.322Z,72.78
2022-10-02T22:18:07.785Z,72.65
2022-10-02T22:20:41.432Z,72.63
2022-10-02T22:23:41.908Z,72.13
2022-10-02T22:26:34.899Z,72.71
2022-10-02T22:29:49.908Z,73.33
2022-10-02T22:33:13.901Z,72.50
2022-10-02T22:36:06.934Z,73.01
2022-10-02T22:39:14.916Z,72.80
2022-10-02T22:42:19.941Z,72.64
2022-10-02T22:45:22.865Z,72.33
2022-10-02T22:48:19.181Z,72.66
2022-10-02T22:50:55.857Z,72.15
2022-10-02T22:53:44.631Z,72.60
2022-10-02T22:56:17.200Z,73.34
2022-10-02T22:58:56.375Z,73.09
2022-10-02T23:01:23.159Z,72.59
2022-10-02T23:04:29.007Z,72.57
2022-10-02T23:07:28.977Z,73.07
2022-10-02T23:10:21.984Z,73.39
2022-10-02T23:13:21.119Z,73.27
2022-10-02T23:16:22.036Z,73.58
2022-10-02T23:19:08.276Z,73.84
2022-10-02T23:22:06.806Z,73.61
2022-10-02T23:25:04.012Z,73.03
2022-10-02T23:28:07.112Z,72.68
2022-10-02T23:31:12.848Z,73.37
2022-10-02T23:34:16.045Z,73.51
2022-10-02T23:37:28.045Z,74.40
2022-10-02T23:40:52.592Z,74.33
2022-10-02T23:43:50.057Z,74.54
2022-10-02T23:46:53.985Z,74.33
2022-10-02T23:50:00.110Z,73.98
2022-10-02T23:53:02.098Z,74.29
2022-10-02T23:55:58.077Z,73.63
2022-10-02T23:59:10.075Z,73.90
